sensor_id;sensor_type;location;lat;lon;timestamp;P1;durP1;ratioP1;P2;durP2;ratioP2
14358;SDS011;7263;49.418;11.064;2022-12-15T00:00:59;15.97;;;13.80;;
14358;SDS011;7263;49.418;11.064;2022-12-15T00:03:44;15.57;;;13.43;;
14358;SDS011;7263;49.418;11.064;2022-12-15T00:06:28;14.93;;;13.20;;
14358;SDS011;7263;49.418;11.064;2022-12-15T00:09:13;14.77;;;13.13;;
14358;SDS011;7263;49.418;11.064;2022-12-15T00:12:00;16.57;;;13.33;;
14358;SDS011;7263;49.418;11.064;2022-12-15T00:14:49;14.53;;;13.03;;
14358;SDS011;7263;49.418;11.064;2022-12-15T00:17:33;15.10;;;13.50;;
14358;SDS011;7263;49.418;11.064;2022-12-15T00:20:17;13.70;;;12.30;;
14358;SDS011;7263;49.418;11.064;2022-12-15T00:23:07;14.97;;;13.23;;
14358;SDS011;7263;49.418;11.064;2022-12-15T00:25:52;14.57;;;12.97;;
14358;SDS011;7263;49.418;11.064;2022-12-15T00:28:36;13.83;;;12.30;;
14358;SDS011;7263;49.418;11.064;2022-12-15T00:31:22;14.17;;;12.67;;
14358;SDS011;7263;49.418;11.064;2022-12-15T00:34:06;15.83;;;14.07;;
14358;SDS011;7263;49.418;11.064;2022-12-15T00:36:50;15.60;;;14.00;;
14358;SDS011;7263;49.418;11.064;2022-12-15T00:39:35;15.77;;;14.07;;
14358;SDS011;7263;49.418;11.064;2022-12-15T00:42:01;15.00;;;13.40;;
14358;SDS011;7263;49.418;11.064;2022-12-15T00:44:28;17.00;;;15.20;;
14358;SDS011;7263;49.418;11.064;2022-12-15T00:46:57;15.40;;;13.87;;
14358;SDS011;7263;49.418;11.064;2022-12-15T00:49:23;15.60;;;13.90;;
14358;SDS011;7263;49.418;11.064;2022-12-15T00:52:08;16.90;;;14.27;;
14358;SDS011;7263;49.418;11.064;2022-12-15T00:54:52;15.57;;;13.87;;
14358;SDS011;7263;49.418;11.064;2022-12-15T00:57:37;15.43;;;13.67;;
14358;SDS011;7263;49.418;11.064;2022-12-15T01:00:21;15.20;;;13.67;;
14358;SDS011;7263;49.418;11.064;2022-12-15T01:03:11;15.43;;;13.83;;
14358;SDS011;7263;49.418;11.064;2022-12-15T01:05:55;18.30;;;15.17;;
14358;SDS011;7263;49.418;11.064;2022-12-15T01:08:40;15.50;;;13.90;;
14358;SDS011;7263;49.418;11.064;2022-12-15T01:11:25;18.37;;;14.63;;
14358;SDS011;7263;49.418;11.064;2022-12-15T01:14:09;15.80;;;13.80;;
14358;SDS011;7263;49.418;11.064;2022-12-15T01:16:53;16.67;;;14.87;;
14358;SDS011;7263;49.418;11.064;2022-12-15T01:19:39;17.10;;;15.07;;
14358;SDS011;7263;49.418;11.064;2022-12-15T01:22:23;17.20;;;15.10;;
14358;SDS011;7263;49.418;11.064;2022-12-15T01:24:50;17.80;;;15.23;;
14358;SDS011;7263;49.418;11.064;2022-12-15T01:27:20;18.30;;;15.70;;
14358;SDS011;7263;49.418;11.064;2022-12-15T01:29:46;18.13;;;16.10;;
14358;SDS011;7263;49.418;11.064;2022-12-15T01:32:13;18.03;;;16.13;;
14358;SDS011;7263;49.418;11.064;2022-12-15T01:34:41;18.87;;;16.87;;
14358;SDS011;7263;49.418;11.064;2022-12-15T01:37:08;19.73;;;16.80;;
14358;SDS011;7263;49.418;11.064;2022-12-15T01:39:35;19.33;;;16.83;;
14358;SDS011;7263;49.418;11.064;2022-12-15T01:42:19;20.77;;;17.07;;
14358;SDS011;7263;49.418;11.064;2022-12-15T01:44:48;20.27;;;16.63;;
14358;SDS011;7263;49.418;11.064;2022-12-15T01:47:17;20.07;;;18.07;;
14358;SDS011;7263;49.418;11.064;2022-12-15T01:49:49;19.60;;;17.00;;
14358;SDS011;7263;49.418;11.064;2022-12-15T01:52:18;19.33;;;16.83;;
14358;SDS011;7263;49.418;11.064;2022-12-15T01:54:45;18.90;;;16.67;;
14358;SDS011;7263;49.418;11.064;2022-12-15T01:57:18;19.23;;;16.33;;
14358;SDS011;7263;49.418;11.064;2022-12-15T01:59:48;18.90;;;16.17;;
14358;SDS011;7263;49.418;11.064;2022-12-15T02:02:19;18.90;;;16.90;;
14358;SDS011;7263;49.418;11.064;2022-12-15T02:04:51;19.03;;;17.03;;
14358;SDS011;7263;49.418;11.064;2022-12-15T02:07:21;20.00;;;17.40;;
14358;SDS011;7263;49.418;11.064;2022-12-15T02:09:49;19.83;;;17.17;;
14358;SDS011;7263;49.418;11.064;2022-12-15T02:12:22;20.23;;;17.93;;
14358;SDS011;7263;49.418;11.064;2022-12-15T02:15:05;20.87;;;17.60;;
14358;SDS011;7263;49.418;11.064;2022-12-15T02:17:40;21.37;;;18.53;;
14358;SDS011;7263;49.418;11.064;2022-12-15T02:23:34;19.30;;;17.07;;
14358;SDS011;7263;49.418;11.064;2022-12-15T02:26:29;19.10;;;17.00;;
14358;SDS011;7263;49.418;11.064;2022-12-15T02:29:16;20.10;;;17.60;;
14358;SDS011;7263;49.418;11.064;2022-12-15T02:32:03;22.63;;;18.57;;
14358;SDS011;7263;49.418;11.064;2022-12-15T02:34:37;20.87;;;18.43;;
14358;SDS011;7263;49.418;11.064;2022-12-15T02:37:12;20.70;;;17.90;;
14358;SDS011;7263;49.418;11.064;2022-12-15T02:39:42;19.70;;;17.20;;
14358;SDS011;7263;49.418;11.064;2022-12-15T02:42:09;19.50;;;17.03;;
14358;SDS011;7263;49.418;11.064;2022-12-15T02:44:37;19.37;;;16.67;;
14358;SDS011;7263;49.418;11.064;2022-12-15T02:47:16;19.67;;;17.50;;
14358;SDS011;7263;49.418;11.064;2022-12-15T02:49:56;20.23;;;18.03;;
14358;SDS011;7263;49.418;11.064;2022-12-15T02:52:40;20.13;;;17.93;;
14358;SDS011;7263;49.418;11.064;2022-12-15T02:55:18;21.47;;;18.10;;
14358;SDS011;7263;49.418;11.064;2022-12-15T02:57:53;20.30;;;18.10;;
14358;SDS011;7263;49.418;11.064;2022-12-15T03:00:25;20.60;;;17.73;;
14358;SDS011;7263;49.418;11.064;2022-12-15T03:02:55;20.33;;;18.23;;
14358;SDS011;7263;49.418;11.064;2022-12-15T03:05:22;19.73;;;17.63;;
14358;SDS011;7263;49.418;11.064;2022-12-15T03:07:50;21.00;;;18.80;;
14358;SDS011;7263;49.418;11.064;2022-12-15T03:10:19;20.73;;;18.53;;
14358;SDS011;7263;49.418;11.064;2022-12-15T03:12:47;19.50;;;17.07;;
14358;SDS011;7263;49.418;11.064;2022-12-15T03:15:15;19.63;;;17.10;;
14358;SDS011;7263;49.418;11.064;2022-12-15T03:17:42;19.33;;;17.23;;
14358;SDS011;7263;49.418;11.064;2022-12-15T03:20:11;21.70;;;18.43;;
14358;SDS011;7263;49.418;11.064;2022-12-15T03:22:38;20.77;;;17.80;;
14358;SDS011;7263;49.418;11.064;2022-12-15T03:25:05;20.13;;;17.43;;
14358;SDS011;7263;49.418;11.064;2022-12-15T03:27:32;20.03;;;17.63;;
14358;SDS011;7263;49.418;11.064;2022-12-15T03:30:00;19.43;;;17.20;;
14358;SDS011;7263;49.418;11.064;2022-12-15T03:32:26;20.70;;;17.80;;
14358;SDS011;7263;49.418;11.064;2022-12-15T03:34:55;20.37;;;17.87;;
14358;SDS011;7263;49.418;11.064;2022-12-15T03:37:23;20.67;;;18.30;;
14358;SDS011;7263;49.418;11.064;2022-12-15T03:39:50;20.13;;;17.80;;
14358;SDS011;7263;49.418;11.064;2022-12-15T03:42:17;19.97;;;17.67;;
14358;SDS011;7263;49.418;11.064;2022-12-15T03:45:04;21.17;;;18.97;;
14358;SDS011;7263;49.418;11.064;2022-12-15T03:47:32;20.43;;;18.00;;
14358;SDS011;7263;49.418;11.064;2022-12-15T03:49:58;21.27;;;18.10;;
14358;SDS011;7263;49.418;11.064;2022-12-15T03:52:27;19.10;;;16.97;;
14358;SDS011;7263;49.418;11.064;2022-12-15T03:54:53;20.23;;;18.07;;
14358;SDS011;7263;49.418;11.064;2022-12-15T03:57:20;21.00;;;18.03;;
14358;SDS011;7263;49.418;11.064;2022-12-15T03:59:47;22.13;;;17.77;;
14358;SDS011;7263;49.418;11.064;2022-12-15T04:02:14;21.30;;;18.80;;
14358;SDS011;7263;49.418;11.064;2022-12-15T04:04:41;20.70;;;17.83;;
14358;SDS011;7263;49.418;11.064;2022-12-15T04:07:07;22.20;;;18.47;;
14358;SDS011;7263;49.418;11.064;2022-12-15T04:09:36;20.10;;;17.23;;
14358;SDS011;7263;49.418;11.064;2022-12-15T04:12:03;20.03;;;16.77;;
14358;SDS011;7263;49.418;11.064;2022-12-15T04:14:30;23.20;;;19.00;;
14358;SDS011;7263;49.418;11.064;2022-12-15T04:16:57;21.27;;;17.90;;
14358;SDS011;7263;49.418;11.064;2022-12-15T04:19:24;20.50;;;17.60;;
14358;SDS011;7263;49.418;11.064;2022-12-15T04:22:08;21.47;;;17.73;;
14358;SDS011;7263;49.418;11.064;2022-12-15T04:24:36;22.17;;;19.03;;
14358;SDS011;7263;49.418;11.064;2022-12-15T04:27:21;20.70;;;18.50;;
14358;SDS011;7263;49.418;11.064;2022-12-15T04:30:05;23.03;;;19.87;;
14358;SDS011;7263;49.418;11.064;2022-12-15T04:32:50;22.67;;;19.77;;
14358;SDS011;7263;49.418;11.064;2022-12-15T04:35:35;22.73;;;19.83;;
14358;SDS011;7263;49.418;11.064;2022-12-15T04:38:19;22.43;;;19.93;;
14358;SDS011;7263;49.418;11.064;2022-12-15T04:41:06;22.07;;;19.10;;
14358;SDS011;7263;49.418;11.064;2022-12-15T04:43:50;23.90;;;19.23;;
14358;SDS011;7263;49.418;11.064;2022-12-15T04:46:34;23.37;;;20.60;;
14358;SDS011;7263;49.418;11.064;2022-12-15T04:49:18;23.63;;;20.40;;
14358;SDS011;7263;49.418;11.064;2022-12-15T04:52:03;22.33;;;19.87;;
14358;SDS011;7263;49.418;11.064;2022-12-15T04:54:47;23.27;;;19.77;;
14358;SDS011;7263;49.418;11.064;2022-12-15T04:57:33;23.27;;;19.73;;
14358;SDS011;7263;49.418;11.064;2022-12-15T05:00:17;22.80;;;19.07;;
14358;SDS011;7263;49.418;11.064;2022-12-15T05:03:03;23.27;;;19.83;;
14358;SDS011;7263;49.418;11.064;2022-12-15T05:05:47;21.87;;;19.33;;
14358;SDS011;7263;49.418;11.064;2022-12-15T05:08:32;21.53;;;18.63;;
14358;SDS011;7263;49.418;11.064;2022-12-15T05:11:16;24.57;;;21.87;;
14358;SDS011;7263;49.418;11.064;2022-12-15T05:14:02;22.07;;;19.70;;
14358;SDS011;7263;49.418;11.064;2022-12-15T05:16:46;25.13;;;20.43;;
14358;SDS011;7263;49.418;11.064;2022-12-15T05:19:30;22.60;;;20.03;;
14358;SDS011;7263;49.418;11.064;2022-12-15T05:22:14;23.50;;;19.47;;
14358;SDS011;7263;49.418;11.064;2022-12-15T05:24:58;23.27;;;19.87;;
14358;SDS011;7263;49.418;11.064;2022-12-15T05:27:42;22.10;;;19.07;;
14358;SDS011;7263;49.418;11.064;2022-12-15T05:30:28;23.17;;;20.17;;
14358;SDS011;7263;49.418;11.064;2022-12-15T05:33:12;24.83;;;20.50;;
14358;SDS011;7263;49.418;11.064;2022-12-15T05:35:39;24.57;;;20.10;;
14358;SDS011;7263;49.418;11.064;2022-12-15T05:38:06;23.27;;;19.00;;
14358;SDS011;7263;49.418;11.064;2022-12-15T05:40:33;24.83;;;19.83;;
14358;SDS011;7263;49.418;11.064;2022-12-15T05:42:59;23.53;;;20.17;;
14358;SDS011;7263;49.418;11.064;2022-12-15T05:45:28;23.93;;;20.60;;
14358;SDS011;7263;49.418;11.064;2022-12-15T05:47:54;25.33;;;20.03;;
14358;SDS011;7263;49.418;11.064;2022-12-15T05:50:21;23.13;;;19.93;;
14358;SDS011;7263;49.418;11.064;2022-12-15T05:52:49;26.00;;;20.80;;
14358;SDS011;7263;49.418;11.064;2022-12-15T05:55:15;25.47;;;21.20;;
14358;SDS011;7263;49.418;11.064;2022-12-15T05:57:42;23.10;;;19.87;;
14358;SDS011;7263;49.418;11.064;2022-12-15T06:00:10;24.40;;;19.77;;
14358;SDS011;7263;49.418;11.064;2022-12-15T06:02:38;24.70;;;19.50;;
14358;SDS011;7263;49.418;11.064;2022-12-15T06:05:05;24.67;;;20.97;;
14358;SDS011;7263;49.418;11.064;2022-12-15T06:07:33;23.17;;;20.67;;
14358;SDS011;7263;49.418;11.064;2022-12-15T06:10:01;21.93;;;18.63;;
14358;SDS011;7263;49.418;11.064;2022-12-15T06:12:28;22.93;;;19.53;;
14358;SDS011;7263;49.418;11.064;2022-12-15T06:14:55;27.37;;;20.53;;
14358;SDS011;7263;49.418;11.064;2022-12-15T06:17:23;23.73;;;20.27;;
14358;SDS011;7263;49.418;11.064;2022-12-15T06:19:51;24.47;;;20.63;;
14358;SDS011;7263;49.418;11.064;2022-12-15T06:22:18;25.93;;;21.37;;
14358;SDS011;7263;49.418;11.064;2022-12-15T06:24:44;24.90;;;20.27;;
14358;SDS011;7263;49.418;11.064;2022-12-15T06:27:11;24.43;;;20.47;;
14358;SDS011;7263;49.418;11.064;2022-12-15T06:29:38;24.20;;;21.40;;
14358;SDS011;7263;49.418;11.064;2022-12-15T06:32:05;24.33;;;20.30;;
14358;SDS011;7263;49.418;11.064;2022-12-15T06:34:32;24.40;;;20.63;;
14358;SDS011;7263;49.418;11.064;2022-12-15T06:37:00;26.73;;;21.50;;
14358;SDS011;7263;49.418;11.064;2022-12-15T06:39:26;24.27;;;19.93;;
14358;SDS011;7263;49.418;11.064;2022-12-15T06:41:53;23.17;;;19.07;;
14358;SDS011;7263;49.418;11.064;2022-12-15T06:44:20;26.97;;;21.43;;
14358;SDS011;7263;49.418;11.064;2022-12-15T06:46:47;23.13;;;20.10;;
14358;SDS011;7263;49.418;11.064;2022-12-15T06:49:14;24.47;;;19.90;;
14358;SDS011;7263;49.418;11.064;2022-12-15T06:51:41;24.10;;;21.07;;
14358;SDS011;7263;49.418;11.064;2022-12-15T06:54:10;24.27;;;21.07;;
14358;SDS011;7263;49.418;11.064;2022-12-15T06:56:37;26.13;;;20.27;;
14358;SDS011;7263;49.418;11.064;2022-12-15T06:59:05;23.00;;;20.37;;
14358;SDS011;7263;49.418;11.064;2022-12-15T07:01:33;26.13;;;21.50;;
14358;SDS011;7263;49.418;11.064;2022-12-15T07:04:00;24.70;;;19.53;;
14358;SDS011;7263;49.418;11.064;2022-12-15T07:06:30;25.33;;;20.60;;
14358;SDS011;7263;49.418;11.064;2022-12-15T07:09:00;24.03;;;19.77;;
14358;SDS011;7263;49.418;11.064;2022-12-15T07:11:28;28.27;;;21.43;;
14358;SDS011;7263;49.418;11.064;2022-12-15T07:13:55;25.00;;;20.80;;
14358;SDS011;7263;49.418;11.064;2022-12-15T07:16:22;23.97;;;19.70;;
14358;SDS011;7263;49.418;11.064;2022-12-15T07:18:49;24.70;;;20.70;;
14358;SDS011;7263;49.418;11.064;2022-12-15T07:21:16;26.13;;;21.00;;
14358;SDS011;7263;49.418;11.064;2022-12-15T07:23:43;25.63;;;19.87;;
14358;SDS011;7263;49.418;11.064;2022-12-15T07:26:10;23.80;;;19.83;;
14358;SDS011;7263;49.418;11.064;2022-12-15T07:28:42;24.07;;;19.33;;
14358;SDS011;7263;49.418;11.064;2022-12-15T07:31:09;23.87;;;19.83;;
14358;SDS011;7263;49.418;11.064;2022-12-15T07:33:36;24.60;;;20.37;;
14358;SDS011;7263;49.418;11.064;2022-12-15T07:36:04;23.97;;;19.70;;
14358;SDS011;7263;49.418;11.064;2022-12-15T07:38:32;27.43;;;19.93;;
14358;SDS011;7263;49.418;11.064;2022-12-15T07:41:00;23.83;;;19.83;;
14358;SDS011;7263;49.418;11.064;2022-12-15T07:43:28;28.93;;;21.40;;
14358;SDS011;7263;49.418;11.064;2022-12-15T07:45:57;24.07;;;20.13;;
14358;SDS011;7263;49.418;11.064;2022-12-15T07:48:24;22.73;;;19.17;;
14358;SDS011;7263;49.418;11.064;2022-12-15T07:50:52;24.07;;;20.03;;
14358;SDS011;7263;49.418;11.064;2022-12-15T07:53:22;23.80;;;19.47;;
14358;SDS011;7263;49.418;11.064;2022-12-15T07:55:52;22.40;;;18.87;;
14358;SDS011;7263;49.418;11.064;2022-12-15T07:58:20;22.17;;;19.50;;
14358;SDS011;7263;49.418;11.064;2022-12-15T08:00:47;22.00;;;18.70;;
14358;SDS011;7263;49.418;11.064;2022-12-15T08:03:16;22.67;;;18.73;;
14358;SDS011;7263;49.418;11.064;2022-12-15T08:05:43;22.53;;;19.47;;
14358;SDS011;7263;49.418;11.064;2022-12-15T08:08:10;22.73;;;19.27;;
14358;SDS011;7263;49.418;11.064;2022-12-15T08:10:37;24.47;;;19.53;;
14358;SDS011;7263;49.418;11.064;2022-12-15T08:13:05;24.90;;;20.03;;
14358;SDS011;7263;49.418;11.064;2022-12-15T08:15:33;25.90;;;19.97;;
14358;SDS011;7263;49.418;11.064;2022-12-15T08:18:01;26.00;;;19.93;;
14358;SDS011;7263;49.418;11.064;2022-12-15T08:20:29;24.23;;;19.40;;
14358;SDS011;7263;49.418;11.064;2022-12-15T08:22:56;22.87;;;20.47;;
14358;SDS011;7263;49.418;11.064;2022-12-15T08:25:24;22.40;;;19.00;;
14358;SDS011;7263;49.418;11.064;2022-12-15T08:27:52;22.10;;;19.70;;
14358;SDS011;7263;49.418;11.064;2022-12-15T08:30:19;26.13;;;22.33;;
14358;SDS011;7263;49.418;11.064;2022-12-15T08:32:46;24.33;;;20.80;;
14358;SDS011;7263;49.418;11.064;2022-12-15T08:35:13;23.70;;;19.93;;
14358;SDS011;7263;49.418;11.064;2022-12-15T08:37:42;22.87;;;20.10;;
14358;SDS011;7263;49.418;11.064;2022-12-15T08:40:09;23.27;;;20.10;;
14358;SDS011;7263;49.418;11.064;2022-12-15T08:42:37;24.70;;;19.80;;
14358;SDS011;7263;49.418;11.064;2022-12-15T08:45:04;25.17;;;20.30;;
14358;SDS011;7263;49.418;11.064;2022-12-15T08:47:32;24.40;;;20.20;;
14358;SDS011;7263;49.418;11.064;2022-12-15T08:49:59;24.50;;;18.70;;
14358;SDS011;7263;49.418;11.064;2022-12-15T08:52:26;21.17;;;18.07;;
14358;SDS011;7263;49.418;11.064;2022-12-15T08:54:54;23.27;;;18.67;;
14358;SDS011;7263;49.418;11.064;2022-12-15T08:57:21;21.73;;;18.73;;
14358;SDS011;7263;49.418;11.064;2022-12-15T08:59:48;21.97;;;18.07;;
14358;SDS011;7263;49.418;11.064;2022-12-15T09:02:15;22.50;;;17.97;;
14358;SDS011;7263;49.418;11.064;2022-12-15T09:04:42;22.73;;;18.57;;
14358;SDS011;7263;49.418;11.064;2022-12-15T09:07:09;20.70;;;18.30;;
14358;SDS011;7263;49.418;11.064;2022-12-15T09:09:36;19.63;;;17.30;;
14358;SDS011;7263;49.418;11.064;2022-12-15T09:12:05;19.90;;;17.60;;
14358;SDS011;7263;49.418;11.064;2022-12-15T09:14:32;21.80;;;18.77;;
14358;SDS011;7263;49.418;11.064;2022-12-15T09:16:59;24.17;;;19.13;;
14358;SDS011;7263;49.418;11.064;2022-12-15T09:19:26;21.00;;;18.37;;
14358;SDS011;7263;49.418;11.064;2022-12-15T09:21:53;21.77;;;18.03;;
14358;SDS011;7263;49.418;11.064;2022-12-15T09:24:20;22.30;;;18.00;;
14358;SDS011;7263;49.418;11.064;2022-12-15T09:26:48;21.37;;;18.07;;
14358;SDS011;7263;49.418;11.064;2022-12-15T09:29:16;23.27;;;20.43;;
14358;SDS011;7263;49.418;11.064;2022-12-15T09:31:43;22.97;;;19.57;;
14358;SDS011;7263;49.418;11.064;2022-12-15T09:34:12;22.30;;;19.20;;
14358;SDS011;7263;49.418;11.064;2022-12-15T09:36:39;21.50;;;18.50;;
14358;SDS011;7263;49.418;11.064;2022-12-15T09:39:06;23.80;;;19.50;;
14358;SDS011;7263;49.418;11.064;2022-12-15T09:41:36;22.37;;;18.30;;
14358;SDS011;7263;49.418;11.064;2022-12-15T09:44:06;20.70;;;17.30;;
14358;SDS011;7263;49.418;11.064;2022-12-15T09:46:51;22.10;;;18.80;;
14358;SDS011;7263;49.418;11.064;2022-12-15T09:49:38;25.77;;;18.43;;
14358;SDS011;7263;49.418;11.064;2022-12-15T09:52:13;21.47;;;18.63;;
14358;SDS011;7263;49.418;11.064;2022-12-15T09:54:43;26.37;;;19.07;;
14358;SDS011;7263;49.418;11.064;2022-12-15T09:57:12;23.20;;;19.23;;
14358;SDS011;7263;49.418;11.064;2022-12-15T09:59:49;24.87;;;20.27;;
14358;SDS011;7263;49.418;11.064;2022-12-15T10:02:33;23.63;;;19.50;;
14358;SDS011;7263;49.418;11.064;2022-12-15T10:05:22;21.63;;;18.13;;
14358;SDS011;7263;49.418;11.064;2022-12-15T10:08:00;24.47;;;19.10;;
14358;SDS011;7263;49.418;11.064;2022-12-15T10:10:28;23.20;;;19.33;;
14358;SDS011;7263;49.418;11.064;2022-12-15T10:13:00;21.87;;;19.00;;
14358;SDS011;7263;49.418;11.064;2022-12-15T10:15:36;23.50;;;19.30;;
14358;SDS011;7263;49.418;11.064;2022-12-15T10:18:17;21.60;;;18.73;;
14358;SDS011;7263;49.418;11.064;2022-12-15T10:20:47;22.43;;;19.07;;
14358;SDS011;7263;49.418;11.064;2022-12-15T10:23:17;22.07;;;18.07;;
14358;SDS011;7263;49.418;11.064;2022-12-15T10:25:45;22.10;;;18.33;;
14358;SDS011;7263;49.418;11.064;2022-12-15T10:28:23;22.80;;;19.47;;
14358;SDS011;7263;49.418;11.064;2022-12-15T10:31:06;25.60;;;19.80;;
14358;SDS011;7263;49.418;11.064;2022-12-15T10:33:42;22.20;;;19.20;;
14358;SDS011;7263;49.418;11.064;2022-12-15T10:36:14;22.23;;;18.90;;
14358;SDS011;7263;49.418;11.064;2022-12-15T10:38:42;22.50;;;18.70;;
14358;SDS011;7263;49.418;11.064;2022-12-15T10:41:12;21.33;;;18.13;;
14358;SDS011;7263;49.418;11.064;2022-12-15T10:43:41;22.00;;;18.60;;
14358;SDS011;7263;49.418;11.064;2022-12-15T10:46:10;23.10;;;19.80;;
14358;SDS011;7263;49.418;11.064;2022-12-15T10:48:39;22.40;;;18.67;;
14358;SDS011;7263;49.418;11.064;2022-12-15T10:51:20;25.50;;;19.53;;
14358;SDS011;7263;49.418;11.064;2022-12-15T10:53:52;24.60;;;19.47;;
14358;SDS011;7263;49.418;11.064;2022-12-15T10:56:20;21.83;;;19.20;;
14358;SDS011;7263;49.418;11.064;2022-12-15T10:58:49;24.27;;;19.50;;
14358;SDS011;7263;49.418;11.064;2022-12-15T11:01:18;23.07;;;19.33;;
14358;SDS011;7263;49.418;11.064;2022-12-15T11:03:48;23.07;;;19.43;;
14358;SDS011;7263;49.418;11.064;2022-12-15T11:06:17;23.40;;;20.87;;
14358;SDS011;7263;49.418;11.064;2022-12-15T11:08:47;24.53;;;19.90;;
14358;SDS011;7263;49.418;11.064;2022-12-15T11:11:22;24.37;;;20.40;;
14358;SDS011;7263;49.418;11.064;2022-12-15T11:14:10;24.93;;;19.90;;
14358;SDS011;7263;49.418;11.064;2022-12-15T11:16:44;23.07;;;19.93;;
14358;SDS011;7263;49.418;11.064;2022-12-15T11:19:14;24.83;;;20.03;;
14358;SDS011;7263;49.418;11.064;2022-12-15T11:21:49;25.30;;;20.57;;
14358;SDS011;7263;49.418;11.064;2022-12-15T11:24:25;27.37;;;21.33;;
14358;SDS011;7263;49.418;11.064;2022-12-15T11:27:00;22.67;;;20.00;;
14358;SDS011;7263;49.418;11.064;2022-12-15T11:29:42;24.07;;;20.27;;
14358;SDS011;7263;49.418;11.064;2022-12-15T11:32:22;24.07;;;20.13;;
14358;SDS011;7263;49.418;11.064;2022-12-15T11:34:51;23.80;;;19.97;;
14358;SDS011;7263;49.418;11.064;2022-12-15T11:40:19;23.73;;;17.70;;
14358;SDS011;7263;49.418;11.064;2022-12-15T11:43:08;23.37;;;19.53;;
14358;SDS011;7263;49.418;11.064;2022-12-15T11:45:49;22.23;;;18.40;;
14358;SDS011;7263;49.418;11.064;2022-12-15T11:48:30;22.50;;;18.10;;
14358;SDS011;7263;49.418;11.064;2022-12-15T11:51:03;23.77;;;18.60;;
14358;SDS011;7263;49.418;11.064;2022-12-15T11:53:45;22.07;;;18.20;;
14358;SDS011;7263;49.418;11.064;2022-12-15T11:56:23;24.60;;;19.43;;
14358;SDS011;7263;49.418;11.064;2022-12-15T12:01:49;23.67;;;19.03;;
14358;SDS011;7263;49.418;11.064;2022-12-15T12:04:25;21.87;;;18.17;;
14358;SDS011;7263;49.418;11.064;2022-12-15T12:06:59;20.80;;;18.37;;
14358;SDS011;7263;49.418;11.064;2022-12-15T12:09:34;21.80;;;18.40;;
14358;SDS011;7263;49.418;11.064;2022-12-15T12:12:09;19.77;;;17.40;;
14358;SDS011;7263;49.418;11.064;2022-12-15T12:14:46;22.47;;;18.60;;
14358;SDS011;7263;49.418;11.064;2022-12-15T12:17:25;22.77;;;18.57;;
14358;SDS011;7263;49.418;11.064;2022-12-15T12:20:07;23.37;;;18.03;;
14358;SDS011;7263;49.418;11.064;2022-12-15T12:22:41;22.30;;;16.67;;
14358;SDS011;7263;49.418;11.064;2022-12-15T12:25:14;22.67;;;17.53;;
14358;SDS011;7263;49.418;11.064;2022-12-15T12:27:44;22.50;;;18.10;;
14358;SDS011;7263;49.418;11.064;2022-12-15T12:30:17;21.57;;;18.00;;
14358;SDS011;7263;49.418;11.064;2022-12-15T12:32:48;21.00;;;16.63;;
14358;SDS011;7263;49.418;11.064;2022-12-15T12:35:20;23.33;;;18.43;;
14358;SDS011;7263;49.418;11.064;2022-12-15T12:37:54;19.73;;;17.13;;
14358;SDS011;7263;49.418;11.064;2022-12-15T12:40:26;19.00;;;16.20;;
14358;SDS011;7263;49.418;11.064;2022-12-15T12:42:57;22.13;;;17.20;;
14358;SDS011;7263;49.418;11.064;2022-12-15T12:45:25;18.87;;;16.83;;
14358;SDS011;7263;49.418;11.064;2022-12-15T12:47:59;17.77;;;15.70;;
14358;SDS011;7263;49.418;11.064;2022-12-15T12:50:30;18.10;;;15.70;;
14358;SDS011;7263;49.418;11.064;2022-12-15T12:52:59;21.13;;;15.50;;
14358;SDS011;7263;49.418;11.064;2022-12-15T12:55:33;19.07;;;15.60;;
14358;SDS011;7263;49.418;11.064;2022-12-15T12:58:04;18.60;;;15.70;;
14358;SDS011;7263;49.418;11.064;2022-12-15T13:01:14;17.37;;;14.30;;
14358;SDS011;7263;49.418;11.064;2022-12-15T13:03:44;24.50;;;16.73;;
14358;SDS011;7263;49.418;11.064;2022-12-15T13:06:19;19.73;;;16.23;;
14358;SDS011;7263;49.418;11.064;2022-12-15T13:08:49;18.97;;;15.80;;
14358;SDS011;7263;49.418;11.064;2022-12-15T13:14:29;19.30;;;15.67;;
14358;SDS011;7263;49.418;11.064;2022-12-15T13:17:02;19.23;;;15.13;;
14358;SDS011;7263;49.418;11.064;2022-12-15T13:22:42;19.57;;;16.13;;
14358;SDS011;7263;49.418;11.064;2022-12-15T13:28:15;18.93;;;16.83;;
14358;SDS011;7263;49.418;11.064;2022-12-15T13:33:52;23.20;;;20.07;;
14358;SDS011;7263;49.418;11.064;2022-12-15T13:36:42;20.70;;;17.03;;
14358;SDS011;7263;49.418;11.064;2022-12-15T13:48:21;21.73;;;16.53;;
14358;SDS011;7263;49.418;11.064;2022-12-15T13:51:02;20.57;;;16.63;;
14358;SDS011;7263;49.418;11.064;2022-12-15T13:53:47;26.53;;;17.23;;
14358;SDS011;7263;49.418;11.064;2022-12-15T13:56:23;20.30;;;16.27;;
14358;SDS011;7263;49.418;11.064;2022-12-15T13:58:59;23.73;;;17.30;;
14358;SDS011;7263;49.418;11.064;2022-12-15T14:01:30;19.30;;;15.90;;
14358;SDS011;7263;49.418;11.064;2022-12-15T14:03:58;21.67;;;17.47;;
14358;SDS011;7263;49.418;11.064;2022-12-15T14:06:35;19.70;;;15.70;;
14358;SDS011;7263;49.418;11.064;2022-12-15T14:09:03;20.47;;;16.40;;
14358;SDS011;7263;49.418;11.064;2022-12-15T14:11:36;19.73;;;16.80;;
14358;SDS011;7263;49.418;11.064;2022-12-15T14:14:13;21.47;;;17.37;;
14358;SDS011;7263;49.418;11.064;2022-12-15T14:16:43;19.73;;;16.67;;
14358;SDS011;7263;49.418;11.064;2022-12-15T14:19:12;20.37;;;18.20;;
14358;SDS011;7263;49.418;11.064;2022-12-15T14:21:48;20.30;;;16.93;;
14358;SDS011;7263;49.418;11.064;2022-12-15T14:24:21;19.90;;;17.03;;
14358;SDS011;7263;49.418;11.064;2022-12-15T14:26:53;22.83;;;19.87;;
14358;SDS011;7263;49.418;11.064;2022-12-15T14:29:20;23.30;;;18.63;;
14358;SDS011;7263;49.418;11.064;2022-12-15T14:31:48;23.23;;;18.53;;
14358;SDS011;7263;49.418;11.064;2022-12-15T14:34:23;22.00;;;18.23;;
14358;SDS011;7263;49.418;11.064;2022-12-15T14:36:55;22.77;;;17.63;;
14358;SDS011;7263;49.418;11.064;2022-12-15T14:39:25;22.33;;;17.57;;
14358;SDS011;7263;49.418;11.064;2022-12-15T14:41:55;24.73;;;18.90;;
14358;SDS011;7263;49.418;11.064;2022-12-15T14:44:29;22.83;;;18.50;;
14358;SDS011;7263;49.418;11.064;2022-12-15T14:46:59;22.93;;;19.03;;
14358;SDS011;7263;49.418;11.064;2022-12-15T14:49:28;22.83;;;18.50;;
14358;SDS011;7263;49.418;11.064;2022-12-15T14:52:00;23.13;;;19.00;;
14358;SDS011;7263;49.418;11.064;2022-12-15T14:54:30;21.80;;;18.63;;
14358;SDS011;7263;49.418;11.064;2022-12-15T14:56:59;20.47;;;17.47;;
14358;SDS011;7263;49.418;11.064;2022-12-15T14:59:29;20.73;;;17.60;;
14358;SDS011;7263;49.418;11.064;2022-12-15T15:02:00;20.30;;;17.93;;
14358;SDS011;7263;49.418;11.064;2022-12-15T15:04:36;19.63;;;16.93;;
14358;SDS011;7263;49.418;11.064;2022-12-15T15:07:05;21.23;;;18.07;;
14358;SDS011;7263;49.418;11.064;2022-12-15T15:09:37;22.00;;;17.70;;
14358;SDS011;7263;49.418;11.064;2022-12-15T15:12:06;29.90;;;22.93;;
14358;SDS011;7263;49.418;11.064;2022-12-15T15:14:36;26.48;;;21.25;;
14358;SDS011;7263;49.418;11.064;2022-12-15T15:17:06;33.30;;;22.80;;
14358;SDS011;7263;49.418;11.064;2022-12-15T15:19:44;34.17;;;25.60;;
14358;SDS011;7263;49.418;11.064;2022-12-15T15:22:30;26.57;;;21.00;;
14358;SDS011;7263;49.418;11.064;2022-12-15T15:25:01;32.10;;;24.03;;